Time;durP1;ratioP1;P1;durP2;ratioP2;P2;SDS_P1;SDS_P2;PMS_P1;PMS_P2;Temp;Humidity;BMP_temperature;BMP_pressure;BME280_temperature;BME280_humidity;BME280_pressure;Samples;Min_cycle;Max_cycle;Signal;HPM_P1;HPM_P2
2023/11/22 00:00:13;;;;;;;12.50;7.47;;;;;;;5.67;77.26;94053.03;5072401;28;20028;-68
2023/11/22 00:02:39;;;;;;;11.48;7.53;;;;;;;5.74;77.02;94064.53;5087182;28;20204;-68
2023/11/22 00:05:05;;;;;;;11.55;7.95;;;;;;;5.61;76.90;94058.66;5071120;28;20491;-69
2023/11/22 00:07:31;;;;;;;9.55;6.55;;;;;;;5.83;76.74;94061.25;5071123;28;20033;-69
2023/11/22 00:09:57;;;;;;;11.65;7.15;;;;;;;5.77;76.99;94041.09;5071971;28;20039;-69
2023/11/22 00:12:24;;;;;;;9.90;6.93;;;;;;;5.81;77.06;94057.94;5104127;28;20486;-68
2023/11/22 00:14:50;;;;;;;11.98;7.20;;;;;;;5.54;77.58;94054.88;5070083;28;20410;-68
2023/11/22 00:17:17;;;;;;;11.18;7.25;;;;;;;5.62;77.93;94046.56;5053236;28;20031;-68
2023/11/22 00:19:44;;;;;;;12.63;7.65;;;;;;;5.68;77.75;94031.47;5072029;28;20020;-69
2023/11/22 00:22:12;;;;;;;9.73;6.47;;;;;;;5.66;77.54;94025.63;5087489;28;20115;-69
2023/11/22 00:24:38;;;;;;;9.63;7.32;;;;;;;5.82;77.23;94026.09;5071944;28;20059;-69
2023/11/22 00:27:04;;;;;;;12.02;7.45;;;;;;;5.79;77.38;94028.06;5070510;28;20486;-70
2023/11/22 00:29:29;;;;;;;12.10;7.03;;;;;;;5.63;77.97;94020.72;5071670;28;20043;-69
2023/11/22 00:31:55;;;;;;;15.23;9.13;;;;;;;5.76;77.63;94023.97;5103619;28;20024;-69
2023/11/22 00:34:21;;;;;;;13.45;8.73;;;;;;;5.68;78.05;94023.72;5069048;28;20032;-69
2023/11/22 00:36:48;;;;;;;13.95;8.52;;;;;;;5.84;77.97;94031.13;5070392;28;20044;-69
2023/11/22 00:39:14;;;;;;;16.63;9.80;;;;;;;5.91;77.60;94016.84;5103829;28;20067;-69
2023/11/22 00:41:39;;;;;;;17.27;9.40;;;;;;;5.58;78.48;94022.81;5069796;28;20467;-69
2023/11/22 00:44:05;;;;;;;19.25;10.90;;;;;;;5.73;78.40;94031.94;5052615;28;20028;-70
2023/11/22 00:46:31;;;;;;;16.17;10.57;;;;;;;5.82;77.89;94028.69;5071541;28;20414;-69
2023/11/22 00:48:57;;;;;;;14.63;9.00;;;;;;;5.63;78.15;94017.28;5069920;28;20402;-69
2023/11/22 00:51:23;;;;;;;15.57;9.57;;;;;;;5.62;78.51;94006.16;5071400;28;20024;-69
2023/11/22 00:53:49;;;;;;;12.98;8.43;;;;;;;5.91;77.96;94021.19;5069589;28;20028;-69
2023/11/22 00:56:15;;;;;;;19.33;11.50;;;;;;;5.81;77.80;94016.72;5071176;28;20072;-69
2023/11/22 00:58:40;;;;;;;19.65;12.57;;;;;;;5.72;77.57;94020.00;5034748;28;20047;-69
2023/11/22 01:01:06;;;;;;;18.83;12.60;;;;;;;5.58;78.14;94009.94;5036796;28;20090;-69
2023/11/22 01:03:33;;;;;;;17.60;11.40;;;;;;;5.86;77.86;94023.28;5071140;28;20044;-69
2023/11/22 01:05:58;;;;;;;15.05;9.98;;;;;;;5.91;77.15;94021.19;5053105;28;20024;-69
2023/11/22 01:08:24;;;;;;;15.10;9.07;;;;;;;6.01;77.15;94033.25;5044831;28;20410;-69
2023/11/22 01:10:49;;;;;;;12.63;8.38;;;;;;;6.05;76.96;94033.84;5051116;28;20028;-69
2023/11/22 01:13:15;;;;;;;14.10;8.55;;;;;;;5.88;77.36;94026.53;5061431;28;20029;-69
2023/11/22 01:15:41;;;;;;;11.93;7.88;;;;;;;5.81;77.96;94023.63;5053236;28;20032;-69
2023/11/22 01:18:07;;;;;;;13.93;7.45;;;;;;;5.88;77.52;94011.06;5069578;28;20107;-69
2023/11/22 01:20:32;;;;;;;14.02;8.25;;;;;;;5.71;77.83;94015.78;5069936;28;20051;-69
2023/11/22 01:22:58;;;;;;;12.15;7.97;;;;;;;5.90;77.42;94007.44;5052746;28;20525;-69
2023/11/22 01:25:23;;;;;;;13.00;8.30;;;;;;;5.96;77.34;93999.28;5086569;28;20028;-69
2023/11/22 01:27:48;;;;;;;13.00;8.48;;;;;;;5.98;77.33;93999.97;5069029;28;20479;-69
2023/11/22 01:30:14;;;;;;;12.18;8.23;;;;;;;5.97;77.38;94010.41;5070823;28;20028;-69
2023/11/22 01:32:40;;;;;;;13.70;8.52;;;;;;;6.09;76.77;94000.91;5069730;28;20677;-69
2023/11/22 01:35:05;;;;;;;12.60;8.65;;;;;;;6.07;76.92;93988.13;5069481;28;20470;-69
2023/11/22 01:37:32;;;;;;;17.27;11.02;;;;;;;6.04;77.04;93996.09;5085475;28;20029;-69
2023/11/22 01:39:57;;;;;;;15.50;10.60;;;;;;;6.04;77.06;94001.25;5070695;28;20028;-69
2023/11/22 01:42:24;;;;;;;16.38;10.63;;;;;;;6.06;77.23;93986.47;5086278;28;20043;-69
2023/11/22 01:44:49;;;;;;;15.60;11.35;;;;;;;6.01;77.21;93991.19;5078284;28;20037;-70
2023/11/22 01:47:15;;;;;;;17.20;10.20;;;;;;;6.13;76.83;93984.22;5070852;28;20399;-69
2023/11/22 01:49:40;;;;;;;16.50;11.07;;;;;;;6.16;76.98;93991.75;5069169;28;20033;-69
2023/11/22 01:52:06;;;;;;;17.92;12.32;;;;;;;6.06;76.72;93978.75;5052826;28;20477;-69
2023/11/22 01:54:31;;;;;;;18.63;12.52;;;;;;;5.88;77.02;93980.97;5054311;28;20487;-69
2023/11/22 01:56:57;;;;;;;18.48;11.13;;;;;;;5.89;76.87;93964.56;5049202;28;20544;-69
2023/11/22 01:59:22;;;;;;;14.18;10.02;;;;;;;5.87;76.78;93969.00;5068345;28;20037;-69
2023/11/22 02:01:49;;;;;;;16.92;10.90;;;;;;;5.92;76.95;93968.66;5102002;28;20056;-69
2023/11/22 02:04:14;;;;;;;16.05;11.23;;;;;;;6.12;76.52;93967.94;5050498;28;20025;-69
2023/11/22 02:06:40;;;;;;;16.50;10.43;;;;;;;6.25;75.99;93963.47;5069458;28;20059;-69
2023/11/22 02:09:06;;;;;;;14.52;9.35;;;;;;;6.17;76.00;93959.84;5069728;28;20060;-69
2023/11/22 02:11:31;;;;;;;15.13;9.98;;;;;;;6.17;76.28;93963.25;5051626;28;20036;-69
2023/11/22 02:13:57;;;;;;;20.55;16.00;;;;;;;5.96;76.42;93964.94;5085789;28;20051;-69
2023/11/22 02:16:22;;;;;;;22.65;14.85;;;;;;;6.10;76.58;93972.44;5071211;28;20024;-69
2023/11/22 02:18:48;;;;;;;25.35;17.10;;;;;;;6.06;76.60;93965.84;5073108;28;20029;-69
2023/11/22 02:21:14;;;;;;;22.50;16.02;;;;;;;6.03;76.47;93973.84;5072485;28;20323;-69
2023/11/22 02:23:40;;;;;;;25.77;16.70;;;;;;;5.73;77.21;93961.53;5056555;28;20141;-69
2023/11/22 02:26:05;;;;;;;23.42;16.38;;;;;;;5.95;76.88;93960.72;5056414;28;20491;-69
2023/11/22 02:28:31;;;;;;;21.35;15.25;;;;;;;6.03;76.33;93958.38;5074372;28;20036;-69
2023/11/22 02:30:56;;;;;;;23.52;14.68;;;;;;;6.13;76.27;93964.44;5072630;28;20036;-69
2023/11/22 02:33:22;;;;;;;16.55;12.30;;;;;;;6.01;75.98;93973.13;5074446;28;20044;-69
2023/11/22 02:35:47;;;;;;;17.02;11.77;;;;;;;5.97;76.51;93974.31;5039505;28;20437;-69
2023/11/22 02:38:12;;;;;;;19.38;11.40;;;;;;;6.08;76.36;93968.31;5071070;28;20029;-69
2023/11/22 02:40:38;;;;;;;16.08;9.27;;;;;;;6.00;76.55;93962.00;5055430;28;20032;-69
2023/11/22 02:43:08;;;;;;;14.02;9.15;;;;;;;5.89;76.71;93972.31;5072450;28;20086;-69
2023/11/22 02:45:34;;;;;;;18.50;10.53;;;;;;;5.89;77.31;93977.47;5088933;28;20024;-69
2023/11/22 02:48:01;;;;;;;15.63;9.73;;;;;;;5.96;76.92;93965.78;5088138;28;20055;-69
2023/11/22 02:50:27;;;;;;;11.70;7.28;;;;;;;5.82;77.55;93971.13;5072371;28;20032;-70
2023/11/22 02:52:53;;;;;;;11.88;7.72;;;;;;;5.75;78.04;93973.38;5072271;28;20037;-69
2023/11/22 02:55:19;;;;;;;10.75;7.45;;;;;;;5.77;78.12;93979.22;5072120;28;20058;-69
2023/11/22 02:57:45;;;;;;;12.35;7.70;;;;;;;5.84;78.17;93984.72;5072019;28;20041;-69
2023/11/22 03:00:14;;;;;;;13.68;8.38;;;;;;;5.66;77.83;93947.50;5055633;28;20032;-70
2023/11/22 03:02:41;;;;;;;14.10;8.30;;;;;;;5.68;78.62;93974.75;5088705;28;20032;-69
2023/11/22 03:05:10;;;;;;;10.85;7.10;;;;;;;5.75;78.28;93975.94;5088968;28;20486;-69
2023/11/22 03:07:36;;;;;;;14.38;8.40;;;;;;;5.73;78.43;93975.22;5072645;28;20036;-69
2023/11/22 03:10:02;;;;;;;13.02;8.75;;;;;;;5.55;78.89;93992.13;5055365;28;20521;-69
2023/11/22 03:12:28;;;;;;;14.00;9.30;;;;;;;5.72;78.87;93981.34;5105793;28;20416;-69
2023/11/22 03:14:58;;;;;;;11.65;7.93;;;;;;;5.63;78.88;93986.38;5070069;28;20036;-69
2023/11/22 03:17:24;;;;;;;15.98;7.97;;;;;;;5.43;79.48;93996.44;5055901;28;20457;-69
2023/11/22 03:19:49;;;;;;;12.82;8.27;;;;;;;5.66;79.31;93993.88;5071990;28;20078;-69
2023/11/22 03:22:14;;;;;;;11.88;8.18;;;;;;;5.78;78.62;93988.59;5088851;28;20423;-69
2023/11/22 03:24:40;;;;;;;11.35;8.20;;;;;;;5.77;78.80;93989.53;5071012;28;20501;-69
2023/11/22 03:27:06;;;;;;;11.27;7.90;;;;;;;5.74;78.80;93992.34;5088178;28;20044;-69
2023/11/22 03:29:32;;;;;;;11.40;7.75;;;;;;;5.57;78.88;93961.88;5072857;28;20415;-69
2023/11/22 03:31:57;;;;;;;11.00;7.78;;;;;;;5.74;78.65;93982.06;5071839;28;20024;-69
2023/11/22 03:34:23;;;;;;;12.45;8.25;;;;;;;5.73;78.82;93977.81;5055141;28;20568;-69
2023/11/22 03:36:49;;;;;;;11.05;7.05;;;;;;;5.99;77.98;93978.41;5052874;28;20471;-69
2023/11/22 03:39:17;;;;;;;9.27;7.13;;;;;;;6.02;77.93;93973.03;5051374;28;20029;-69
2023/11/22 03:41:43;;;;;;;10.30;6.90;;;;;;;5.98;77.55;93950.16;5034804;28;20111;-69
2023/11/22 03:44:09;;;;;;;9.60;6.35;;;;;;;6.22;77.66;93973.22;5098532;28;20024;-69
2023/11/22 03:46:35;;;;;;;10.35;7.28;;;;;;;6.01;78.40;93983.44;5070912;28;20027;-69
2023/11/22 03:49:06;;;;;;;12.52;6.65;;;;;;;6.08;77.74;93971.72;5070888;28;20089;-69
2023/11/22 03:51:32;;;;;;;10.45;7.57;;;;;;;6.00;77.79;93963.75;5068180;28;20501;-69
2023/11/22 03:53:57;;;;;;;9.15;7.22;;;;;;;6.15;77.84;93972.84;5048884;28;20041;-69
2023/11/22 03:56:22;;;;;;;11.43;7.45;;;;;;;5.75;78.26;93949.34;5084887;28;20468;-69
2023/11/22 03:58:51;;;;;;;10.98;6.68;;;;;;;5.98;78.02;93968.22;5071860;28;20486;-69
2023/11/22 04:01:16;;;;;;;8.65;6.18;;;;;;;6.09;77.65;93968.19;5066924;28;20036;-70
2023/11/22 04:03:42;;;;;;;8.52;6.38;;;;;;;6.07;77.78;93982.97;5068484;28;20097;-69
2023/11/22 04:06:07;;;;;;;9.23;5.97;;;;;;;5.95;78.02;93965.88;5071369;28;20562;-69
2023/11/22 04:08:33;;;;;;;9.20;6.38;;;;;;;6.06;77.95;93977.94;5071240;28;20505;-69
2023/11/22 04:10:58;;;;;;;9.32;6.65;;;;;;;6.15;77.42;93978.03;5069228;28;20406;-69
2023/11/22 04:13:24;;;;;;;38.65;23.60;;;;;;;6.11;77.12;93971.47;5084044;28;20032;-69
2023/11/22 04:15:50;;;;;;;34.75;20.15;;;;;;;6.02;77.89;93978.19;5053889;28;20021;-69
2023/11/22 04:18:16;;;;;;;35.70;21.27;;;;;;;5.97;77.77;93989.78;5068157;28;20409;-69
2023/11/22 04:20:42;;;;;;;34.90;20.13;;;;;;;5.57;78.93;94003.97;5053771;28;20455;-69
2023/11/22 04:23:10;;;;;;;31.67;19.30;;;;;;;5.86;78.60;94008.63;5067468;28;20028;-69
2023/11/22 04:25:35;;;;;;;33.03;19.30;;;;;;;5.91;78.08;94009.09;5070984;28;20032;-69
2023/11/22 04:28:00;;;;;;;26.35;15.25;;;;;;;5.83;78.71;94012.25;5069925;28;20041;-69
2023/11/22 04:30:26;;;;;;;27.73;16.48;;;;;;;5.49;79.49;94000.28;5052222;28;20391;-69
2023/11/22 04:32:51;;;;;;;29.35;17.13;;;;;;;5.56;80.20;94024.66;5068796;28;20064;-69
2023/11/22 04:35:17;;;;;;;31.42;19.05;;;;;;;5.60;80.03;94028.66;5070092;28;20020;-69
2023/11/22 04:37:42;;;;;;;28.60;19.70;;;;;;;5.72;79.19;94025.16;5069345;28;20380;-70
2023/11/22 04:40:08;;;;;;;21.67;15.35;;;;;;;5.76;79.23;94039.44;5068292;28;20028;-69
2023/11/22 04:42:36;;;;;;;20.95;13.80;;;;;;;5.50;79.75;94018.22;5049539;28;20049;-69
2023/11/22 04:45:02;;;;;;;16.67;12.07;;;;;;;5.73;79.94;94041.44;5051801;28;20044;-69
2023/11/22 04:47:27;;;;;;;14.93;10.43;;;;;;;5.77;79.74;94041.09;5069870;28;20036;-69
2023/11/22 04:49:53;;;;;;;12.63;9.95;;;;;;;5.80;79.83;94052.94;5070023;28;20032;-69
2023/11/22 04:52:18;;;;;;;13.75;9.95;;;;;;;5.81;79.72;94055.38;5067574;28;20032;-69
2023/11/22 04:54:44;;;;;;;13.85;9.75;;;;;;;5.86;79.33;94057.59;5066970;28;20028;-69
2023/11/22 04:57:10;;;;;;;14.25;10.10;;;;;;;5.83;79.36;94050.94;5068194;28;20044;-69
2023/11/22 04:59:35;;;;;;;13.95;10.05;;;;;;;5.85;79.67;94058.56;5052320;28;20032;-69
2023/11/22 05:02:01;;;;;;;12.90;9.90;;;;;;;5.91;79.44;94065.81;5068821;28;20066;-69
2023/11/22 05:04:26;;;;;;;14.35;9.15;;;;;;;6.00;79.12;94070.28;5065000;28;20725;-69
2023/11/22 05:06:53;;;;;;;12.57;9.77;;;;;;;6.03;78.96;94066.66;5069517;28;20486;-69
2023/11/22 05:09:18;;;;;;;13.57;9.55;;;;;;;6.01;78.97;94084.00;5068038;28;20063;-69
2023/11/22 05:11:47;;;;;;;13.82;9.65;;;;;;;5.93;79.70;94094.88;5068682;28;20529;-69
2023/11/22 05:14:15;;;;;;;34.75;21.67;;;;;;;6.04;79.17;94092.34;5047816;28;20485;-69
2023/11/22 05:16:41;;;;;;;46.72;27.77;;;;;;;6.14;78.78;94095.03;5036768;28;20036;-69
2023/11/22 05:19:06;;;;;;;33.00;22.73;;;;;;;6.21;78.82;94095.34;5069025;28;20059;-69
2023/11/22 05:21:32;;;;;;;27.50;18.15;;;;;;;6.23;78.50;94096.06;5066207;28;20071;-69
2023/11/22 05:23:58;;;;;;;23.92;16.23;;;;;;;6.15;78.82;94101.81;5065504;28;20116;-69
2023/11/22 05:26:23;;;;;;;25.90;16.73;;;;;;;6.06;79.10;94099.13;5034522;28;20078;-69
2023/11/22 05:28:48;;;;;;;21.80;14.43;;;;;;;6.17;78.91;94114.59;5052187;28;20028;-69
2023/11/22 05:31:14;;;;;;;17.83;12.27;;;;;;;6.28;78.58;94100.88;5065898;28;20032;-69
2023/11/22 05:33:40;;;;;;;16.45;11.38;;;;;;;6.20;78.51;94104.03;5066154;28;20040;-69
2023/11/22 05:36:06;;;;;;;30.20;12.27;;;;;;;6.08;78.82;94100.66;5069093;28;20060;-69
2023/11/22 05:38:33;;;;;;;28.88;12.68;;;;;;;6.13;79.12;94126.06;5068152;28;20146;-69
2023/11/22 05:40:59;;;;;;;17.90;10.35;;;;;;;6.32;78.68;94125.50;5070569;28;20086;-69
2023/11/22 05:43:26;;;;;;;11.63;7.20;;;;;;;6.36;78.89;94132.88;5049395;28;20036;-69
2023/11/22 05:45:55;;;;;;;12.23;7.57;;;;;;;6.41;78.68;94135.13;5070941;28;20020;-69
2023/11/22 05:48:20;;;;;;;8.60;6.60;;;;;;;6.35;78.38;94117.50;5050403;28;20067;-69
2023/11/22 05:50:46;;;;;;;10.57;6.93;;;;;;;6.39;78.70;94148.13;5073119;28;20072;-69
2023/11/22 05:53:12;;;;;;;16.88;7.65;;;;;;;6.18;78.84;94129.94;5073344;28;20081;-69
2023/11/22 05:55:38;;;;;;;14.27;7.80;;;;;;;6.35;78.98;94139.00;5057528;28;20221;-69
2023/11/22 05:58:03;;;;;;;18.15;11.57;;;;;;;6.40;78.87;94144.59;5057537;28;20067;-68
2023/11/22 06:00:29;;;;;;;16.15;10.23;;;;;;;6.47;79.00;94142.38;5073865;28;20039;-69
2023/11/22 06:02:55;;;;;;;27.75;16.40;;;;;;;6.55;78.98;94145.19;5058660;28;20021;-69
2023/11/22 06:05:21;;;;;;;78.80;38.78;;;;;;;6.44;78.80;94142.63;5075527;28;20037;-70
2023/11/22 06:07:47;;;;;;;123.10;53.55;;;;;;;6.54;78.39;94153.84;5054587;28;20545;-69
2023/11/22 06:10:15;;;;;;;125.65;55.75;;;;;;;6.47;79.19;94157.88;5040583;28;20039;-69
2023/11/22 06:12:41;;;;;;;73.75;35.95;;;;;;;6.14;79.87;94169.00;5072032;28;20048;-69
2023/11/22 06:15:07;;;;;;;113.03;54.63;;;;;;;6.17;80.44;94156.69;5076970;28;20028;-69
2023/11/22 06:17:33;;;;;;;51.00;27.02;;;;;;;6.13;80.81;94175.06;5071976;28;20028;-69
2023/11/22 06:19:58;;;;;;;40.03;22.60;;;;;;;6.31;80.62;94173.69;5057743;28;20039;-69
2023/11/22 06:22:23;;;;;;;24.08;14.95;;;;;;;6.21;80.57;94173.59;5063861;28;20048;-69
2023/11/22 06:24:49;;;;;;;42.72;23.05;;;;;;;5.94;81.51;94189.34;5072435;28;20032;-69
2023/11/22 06:27:17;;;;;;;52.65;28.00;;;;;;;6.11;81.14;94180.34;5070395;28;20029;-69
2023/11/22 06:29:46;;;;;;;52.00;27.58;;;;;;;6.21;81.05;94180.47;5037392;28;20097;-69
2023/11/22 06:32:12;;;;;;;37.08;22.20;;;;;;;6.15;80.99;94179.19;5046196;28;20025;-69
2023/11/22 06:34:37;;;;;;;35.08;18.50;;;;;;;6.15;80.63;94204.97;5051875;28;20399;-69
2023/11/22 06:37:04;;;;;;;113.18;47.03;;;;;;;6.24;80.92;94209.47;5058139;28;20035;-69
2023/11/22 06:39:29;;;;;;;207.63;77.28;;;;;;;6.32;80.74;94206.28;5070914;28;20048;-69
2023/11/22 06:41:55;;;;;;;35.47;18.70;;;;;;;6.15;81.19;94189.50;5075061;28;20067;-69
2023/11/22 06:44:20;;;;;;;24.00;13.82;;;;;;;6.50;80.17;94204.06;5054115;28;20036;-69
2023/11/22 06:46:46;;;;;;;26.33;14.77;;;;;;;6.58;79.76;94198.34;5071970;28;20032;-69
2023/11/22 06:49:11;;;;;;;18.13;11.07;;;;;;;6.64;79.76;94200.44;5109287;28;20032;-69
2023/11/22 06:51:37;;;;;;;15.85;11.07;;;;;;;6.74;79.75;94211.66;5073640;28;20036;-69
2023/11/22 06:54:02;;;;;;;17.60;11.43;;;;;;;6.79;79.20;94206.97;5052682;28;20020;-68
2023/11/22 06:56:28;;;;;;;16.23;10.98;;;;;;;6.98;79.06;94226.22;5071714;28;20072;-69
2023/11/22 06:58:54;;;;;;;16.88;11.25;;;;;;;6.89;78.62;94231.16;5073022;28;20033;-68
2023/11/22 07:01:23;;;;;;;13.52;10.30;;;;;;;6.96;78.94;94220.34;5067468;28;20032;-68
2023/11/22 07:03:49;;;;;;;15.70;10.73;;;;;;;6.98;78.66;94205.56;5070776;28;20034;-68
2023/11/22 07:06:14;;;;;;;25.60;17.48;;;;;;;7.10;78.42;94225.25;5072197;28;20020;-68
2023/11/22 07:08:40;;;;;;;26.15;17.85;;;;;;;7.29;78.08;94228.03;5076138;28;20036;-68
2023/11/22 07:11:09;;;;;;;27.15;19.15;;;;;;;7.31;77.70;94210.66;5091929;28;20024;-68
2023/11/22 07:13:38;;;;;;;19.30;14.60;;;;;;;7.42;77.28;94232.25;5078779;28;20028;-68
2023/11/22 07:16:04;;;;;;;27.23;21.02;;;;;;;7.49;77.11;94223.84;5071850;28;20028;-68
2023/11/22 07:18:29;;;;;;;18.98;14.40;;;;;;;7.51;76.34;94210.81;5038203;28;20032;-68
2023/11/22 07:20:55;;;;;;;14.77;10.88;;;;;;;7.60;76.59;94221.25;5072761;28;20513;-68
2023/11/22 07:23:25;;;;;;;13.73;9.63;;;;;;;7.70;76.42;94223.09;5087728;28;20490;-69
2023/11/22 07:25:50;;;;;;;12.70;9.68;;;;;;;7.74;76.21;94219.28;5073064;28;20032;-68
2023/11/22 07:28:16;;;;;;;16.08;11.68;;;;;;;7.64;76.40;94202.91;5071988;28;20032;-68
2023/11/22 07:30:41;;;;;;;17.90;14.18;;;;;;;7.80;76.76;94239.47;5070375;28;20055;-68
2023/11/22 07:33:07;;;;;;;18.63;12.93;;;;;;;7.89;76.48;94236.16;5072980;28;20513;-69
2023/11/22 07:35:32;;;;;;;18.02;13.38;;;;;;;7.67;77.00;94221.56;5080028;28;20016;-69
2023/11/22 07:37:58;;;;;;;24.60;17.30;;;;;;;7.77;77.55;94237.16;5056417;28;20039;-68
2023/11/22 07:40:23;;;;;;;25.30;17.98;;;;;;;7.78;77.36;94238.81;5075332;28;20071;-69
2023/11/22 07:42:49;;;;;;;26.15;19.33;;;;;;;7.88;76.65;94239.69;5073075;28;20430;-68
2023/11/22 07:45:14;;;;;;;28.38;18.60;;;;;;;7.70;77.16;94226.50;5074161;28;20027;-68
2023/11/22 07:47:41;;;;;;;29.27;17.92;;;;;;;7.76;77.14;94240.69;5083086;28;20479;-68
2023/11/22 07:50:11;;;;;;;25.02;16.73;;;;;;;7.88;76.97;94262.97;5054979;28;20414;-69
2023/11/22 07:52:38;;;;;;;23.70;17.92;;;;;;;7.90;76.45;94255.91;5072815;28;20047;-69
2023/11/22 07:55:05;;;;;;;20.40;16.63;;;;;;;7.88;76.47;94252.63;5070981;28;20427;-69
2023/11/22 07:57:31;;;;;;;24.27;17.75;;;;;;;7.89;76.23;94264.63;5054655;28;20028;-68
2023/11/22 07:59:56;;;;;;;27.20;18.58;;;;;;;7.67;76.90;94264.72;5082924;28;20026;-68
2023/11/22 08:02:22;;;;;;;29.25;21.80;;;;;;;7.68;77.71;94258.56;5091514;28;20032;-70
2023/11/22 08:04:50;;;;;;;25.65;19.33;;;;;;;7.93;76.82;94252.25;5091425;28;20043;-69
2023/11/22 08:07:16;;;;;;;28.25;19.63;;;;;;;8.03;76.47;94259.13;5074649;28;20123;-68
2023/11/22 08:09:43;;;;;;;26.13;19.65;;;;;;;7.72;77.45;94257.41;5091242;28;20081;-68
2023/11/22 08:12:10;;;;;;;38.38;26.05;;;;;;;7.73;77.40;94267.59;5074686;28;20020;-69
2023/11/22 08:14:40;;;;;;;39.55;27.02;;;;;;;7.97;77.01;94264.81;5057032;28;20028;-69
2023/11/22 08:17:05;;;;;;;42.13;27.33;;;;;;;8.01;76.82;94261.03;5074745;28;20028;-68
2023/11/22 08:19:31;;;;;;;55.10;34.28;;;;;;;8.12;76.37;94262.75;5086999;28;20486;-70
2023/11/22 08:21:56;;;;;;;42.35;28.08;;;;;;;8.26;75.74;94269.38;5071771;28;20420;-69
2023/11/22 08:24:22;;;;;;;33.03;24.50;;;;;;;7.96;76.30;94277.88;5070315;28;20568;-69
2023/11/22 08:26:48;;;;;;;36.63;25.77;;;;;;;8.17;75.93;94280.50;5070302;28;20028;-68
2023/11/22 08:29:14;;;;;;;31.67;22.73;;;;;;;8.25;75.30;94272.91;5070042;28;20424;-68
2023/11/22 08:31:40;;;;;;;28.98;20.20;;;;;;;8.29;75.11;94269.13;5070321;28;20041;-68
2023/11/22 08:34:06;;;;;;;31.50;21.50;;;;;;;8.22;75.08;94273.16;5033716;28;20082;-68
2023/11/22 08:36:34;;;;;;;30.55;19.92;;;;;;;8.09;76.09;94272.53;5052727;28;20021;-68
2023/11/22 08:39:03;;;;;;;25.73;18.80;;;;;;;8.33;75.21;94273.09;5066921;28;20128;-68
2023/11/22 08:41:30;;;;;;;28.48;19.73;;;;;;;8.47;74.33;94275.41;5059494;28;20024;-68
2023/11/22 08:43:55;;;;;;;21.85;16.15;;;;;;;8.56;73.57;94283.34;5086503;28;20114;-69
2023/11/22 08:46:21;;;;;;;19.33;15.05;;;;;;;8.53;73.34;94268.09;5072417;28;20100;-69
2023/11/22 08:48:47;;;;;;;20.73;15.07;;;;;;;8.65;72.93;94288.56;5089494;28;20030;-69
2023/11/22 08:51:12;;;;;;;20.10;14.75;;;;;;;8.61;73.24;94288.94;5073300;28;20028;-69
2023/11/22 08:53:38;;;;;;;21.27;15.25;;;;;;;8.71;72.51;94290.66;5073717;28;20086;-69
2023/11/22 08:56:05;;;;;;;21.05;15.30;;;;;;;8.56;72.79;94291.94;5090332;28;20119;-69
2023/11/22 08:58:31;;;;;;;21.40;14.45;;;;;;;8.57;73.28;94277.22;5092043;28;20040;-69
2023/11/22 09:00:57;;;;;;;27.70;16.95;;;;;;;8.57;73.48;94279.81;5056845;28;20409;-69
2023/11/22 09:03:23;;;;;;;22.80;16.17;;;;;;;8.45;73.67;94284.25;5091913;28;20047;-69
2023/11/22 09:05:49;;;;;;;22.80;14.90;;;;;;;8.76;72.62;94284.28;5091498;28;20039;-68
2023/11/22 09:08:15;;;;;;;23.45;15.05;;;;;;;8.43;73.50;94286.13;5090347;28;20414;-69
2023/11/22 09:10:44;;;;;;;22.30;15.73;;;;;;;8.61;73.14;94291.53;5091345;28;20028;-69
2023/11/22 09:13:10;;;;;;;22.52;16.85;;;;;;;8.34;74.19;94285.09;5090290;28;20028;-69
2023/11/22 09:15:36;;;;;;;26.15;17.70;;;;;;;8.42;73.67;94285.31;5091340;28;20089;-69
2023/11/22 09:18:01;;;;;;;25.65;19.60;;;;;;;8.65;72.90;94298.94;5091605;28;20466;-69
2023/11/22 09:20:27;;;;;;;29.20;21.77;;;;;;;8.63;73.23;94282.69;5089986;28;20023;-69
2023/11/22 09:22:54;;;;;;;34.22;23.85;;;;;;;8.65;73.19;94295.53;5072957;28;20043;-69
2023/11/22 09:25:21;;;;;;;32.25;23.25;;;;;;;8.53;73.75;94296.56;5073040;28;20039;-69
2023/11/22 09:27:48;;;;;;;34.15;22.80;;;;;;;8.79;73.28;94292.59;5073267;28;20418;-69
2023/11/22 09:30:32;;;;;;;36.47;24.25;;;;;;;8.85;72.73;94312.78;5073640;28;20032;-69
2023/11/22 09:33:01;;;;;;;35.47;26.77;;;;;;;8.78;73.60;94321.22;5090181;28;20059;-69
2023/11/22 09:35:29;;;;;;;48.25;29.42;;;;;;;8.61;74.17;94325.19;5091097;28;20482;-69
2023/11/22 09:38:00;;;;;;;47.50;27.13;;;;;;;8.61;74.36;94320.00;5073392;28;20044;-68
2023/11/22 09:40:27;;;;;;;31.58;23.38;;;;;;;8.71;73.75;94315.72;5091085;28;20016;-69
2023/11/22 09:42:52;;;;;;;25.67;19.95;;;;;;;8.74;73.34;94333.59;5073092;28;20489;-68
2023/11/22 09:45:19;;;;;;;24.10;19.10;;;;;;;8.70;73.18;94309.72;5090975;28;20031;-68
2023/11/22 09:47:47;;;;;;;26.77;19.40;;;;;;;8.72;73.10;94314.78;5089701;28;20467;-69
2023/11/22 09:50:21;;;;;;;25.50;17.80;;;;;;;8.78;73.20;94303.91;5073103;28;20127;-69
2023/11/22 09:52:50;;;;;;;26.08;17.45;;;;;;;8.63;73.62;94312.94;5089682;28;20040;-68
2023/11/22 09:55:17;;;;;;;26.63;17.63;;;;;;;8.77;72.46;94312.63;5072580;28;20197;-69
2023/11/22 09:57:42;;;;;;;23.17;17.88;;;;;;;8.87;72.73;94308.31;5088114;28;20550;-69
2023/11/22 10:00:08;;;;;;;37.40;22.58;;;;;;;8.50;73.31;94279.50;5068138;28;20016;-68
2023/11/22 10:02:35;;;;;;;24.13;17.73;;;;;;;8.92;72.80;94302.75;5052204;28;20445;-68
2023/11/22 10:05:01;;;;;;;24.35;17.08;;;;;;;8.90;72.50;94307.25;5070600;28;20028;-69
2023/11/22 10:07:26;;;;;;;23.58;16.73;;;;;;;8.77;72.98;94314.38;5069375;28;20090;-69
2023/11/22 10:09:52;;;;;;;141.85;68.80;;;;;;;8.88;72.69;94324.69;5067880;28;20031;-69
2023/11/22 10:12:20;;;;;;;59.42;36.67;;;;;;;9.03;72.35;94320.00;5070609;28;20071;-68
2023/11/22 10:14:47;;;;;;;109.30;60.40;;;;;;;8.93;72.41;94305.22;5052570;28;20039;-69
2023/11/22 10:17:15;;;;;;;25.35;18.73;;;;;;;9.16;71.46;94305.03;5052641;28;20085;-69
2023/11/22 10:19:40;;;;;;;25.95;18.98;;;;;;;9.11;72.13;94309.78;5070395;28;20036;-69
2023/11/22 10:22:06;;;;;;;27.90;20.65;;;;;;;9.26;71.50;94303.28;5052435;28;20036;-69
2023/11/22 10:24:35;;;;;;;52.00;38.50;;;;;;;9.36;71.61;94311.09;5069178;28;20032;-69
2023/11/22 10:27:03;;;;;;;33.20;24.50;;;;;;;9.51;71.20;94303.78;5069171;28;20044;-68
2023/11/22 10:29:29;;;;;;;46.13;34.13;;;;;;;9.05;72.40;94302.53;5069088;28;20060;-69
2023/11/22 10:31:54;;;;;;;39.15;30.13;;;;;;;9.23;72.43;94306.16;5070324;28;20033;-69
2023/11/22 10:34:23;;;;;;;35.60;28.33;;;;;;;9.28;71.96;94305.78;5069092;28;20029;-69
2023/11/22 10:36:53;;;;;;;27.95;20.00;;;;;;;9.42;71.12;94296.78;5053177;28;20035;-69
2023/11/22 10:39:22;;;;;;;22.67;16.35;;;;;;;9.60;70.53;94308.97;5072884;28;20024;-69
2023/11/22 10:41:47;;;;;;;24.27;18.65;;;;;;;9.56;70.50;94306.81;5039300;28;20032;-69
2023/11/22 10:44:15;;;;;;;30.95;21.95;;;;;;;9.50;71.36;94307.31;5072774;28;20032;-69
2023/11/22 10:46:40;;;;;;;30.02;19.58;;;;;;;9.27;71.65;94291.97;5056377;28;20043;-69
2023/11/22 10:49:06;;;;;;;34.05;26.83;;;;;;;9.43;71.75;94316.59;5055738;28;20111;-69
2023/11/22 10:51:32;;;;;;;32.13;21.58;;;;;;;9.47;71.49;94315.34;5072547;28;20506;-69
2023/11/22 10:53:57;;;;;;;32.13;23.80;;;;;;;9.33;72.56;94313.94;5055925;28;20025;-69
2023/11/22 10:56:24;;;;;;;27.45;21.20;;;;;;;9.70;71.56;94311.59;5055612;28;20044;-69
2023/11/22 10:58:51;;;;;;;29.25;22.42;;;;;;;9.58;71.59;94323.03;5039341;28;20029;-69
2023/11/22 11:01:18;;;;;;;30.02;22.60;;;;;;;9.70;71.20;94309.00;5055860;28;20108;-69
2023/11/22 11:04:06;;;;;;;34.63;23.15;;;;;;;9.51;71.86;94303.78;5072272;28;20039;-68
2023/11/22 11:06:33;;;;;;;29.65;21.88;;;;;;;9.44;71.93;94297.47;5072465;28;20089;-68
2023/11/22 11:09:08;;;;;;;28.83;21.98;;;;;;;9.78;71.94;94306.56;5055735;28;20576;-68
2023/11/22 11:11:35;;;;;;;28.17;20.92;;;;;;;9.81;71.50;94303.69;5072317;28;20103;-69
2023/11/22 11:14:01;;;;;;;33.80;22.50;;;;;;;9.76;71.61;94298.09;5055512;28;20068;-69
2023/11/22 11:16:26;;;;;;;31.15;23.20;;;;;;;9.65;71.81;94311.19;5072178;28;20452;-69
2023/11/22 11:18:52;;;;;;;31.33;21.10;;;;;;;9.56;72.16;94307.63;5038666;28;20032;-69
2023/11/22 11:21:18;;;;;;;28.40;21.02;;;;;;;9.78;71.59;94311.75;5055407;28;20024;-69
2023/11/22 11:23:44;;;;;;;35.10;21.77;;;;;;;9.86;71.22;94313.66;5055313;28;20031;-69